createdAt,value
2019-02-22T00:01:13.299Z,19.75
2019-02-22T00:03:41.599Z,19.58
2019-02-22T00:06:09.892Z,19.35
2019-02-22T00:08:38.953Z,20.30
2019-02-22T00:11:07.332Z,19.40
2019-02-22T00:13:36.423Z,19.83
2019-02-22T00:16:04.745Z,20.05
2019-02-22T00:18:33.048Z,19.87
2019-02-22T00:21:01.366Z,20.47
2019-02-22T00:23:29.598Z,20.75
2019-02-22T00:25:57.917Z,20.85
2019-02-22T00:28:27.065Z,20.35
2019-02-22T00:30:55.402Z,21.60
2019-02-22T00:33:23.813Z,22.35
2019-02-22T00:35:52.144Z,22.52
2019-02-22T00:38:20.411Z,23.80
2019-02-22T00:40:49.679Z,22.95
2019-02-22T00:43:17.940Z,22.30
2019-02-22T00:45:46.233Z,22.77
2019-02-22T00:48:14.523Z,22.20
2019-02-22T00:50:42.811Z,22.48
2019-02-22T00:53:11.879Z,23.27
2019-02-22T00:55:40.204Z,22.77
2019-02-22T00:58:08.530Z,22.92
2019-02-22T01:00:36.791Z,23.00
2019-02-22T01:03:05.175Z,23.38
2019-02-22T01:05:33.467Z,22.98
2019-02-22T01:08:01.835Z,23.65
2019-02-22T01:10:31.515Z,24.73
2019-02-22T01:12:58.503Z,24.23
2019-02-22T01:15:26.954Z,25.17
2019-02-22T01:17:55.951Z,25.55
2019-02-22T01:20:24.277Z,24.90
2019-02-22T01:22:53.337Z,25.40
2019-02-22T01:25:21.677Z,25.42
2019-02-22T01:27:49.964Z,25.95
2019-02-22T01:30:18.352Z,25.30
2019-02-22T01:32:46.672Z,25.45
2019-02-22T01:35:15.004Z,26.42
2019-02-22T01:37:43.285Z,26.98
2019-02-22T01:40:11.659Z,26.95
2019-02-22T01:42:40.036Z,27.23
2019-02-22T01:45:08.351Z,27.48
2019-02-22T01:47:37.515Z,28.02
2019-02-22T01:50:05.906Z,28.10
2019-02-22T01:52:34.152Z,27.10
2019-02-22T01:55:02.444Z,27.15
2019-02-22T01:57:30.810Z,27.55
2019-02-22T01:59:59.106Z,28.35
2019-02-22T02:02:27.468Z,28.58
2019-02-22T02:04:55.754Z,28.48
2019-02-22T02:07:24.123Z,28.75
2019-02-22T02:09:52.499Z,28.20
2019-02-22T02:12:20.908Z,27.80
2019-02-22T02:14:49.775Z,27.87
2019-02-22T02:17:18.043Z,27.77
2019-02-22T02:19:46.302Z,27.70
2019-02-22T02:22:14.591Z,28.15
2019-02-22T02:24:43.055Z,27.45
2019-02-22T02:27:11.351Z,27.75
2019-02-22T02:29:39.745Z,28.25
2019-02-22T02:32:08.021Z,27.55
2019-02-22T02:34:36.386Z,27.10
2019-02-22T02:37:04.761Z,26.87
2019-02-22T02:39:33.036Z,27.92
2019-02-22T02:42:01.327Z,27.27
2019-02-22T02:44:29.685Z,26.17
2019-02-22T02:46:58.060Z,26.12
2019-02-22T02:49:26.443Z,25.75
2019-02-22T02:51:54.823Z,26.48
2019-02-22T02:54:23.212Z,24.92
2019-02-22T02:56:51.571Z,26.17
2019-02-22T02:59:19.864Z,24.75
2019-02-22T03:01:48.168Z,24.80
2019-02-22T03:04:17.315Z,24.08
2019-02-22T03:06:55.515Z,24.73
2019-02-22T03:09:23.794Z,22.65
2019-02-22T03:11:52.177Z,23.60
2019-02-22T03:14:20.616Z,23.00
2019-02-22T03:16:48.919Z,23.45
2019-02-22T03:19:17.219Z,23.00
2019-02-22T03:21:45.520Z,21.42
2019-02-22T03:24:13.815Z,22.17
2019-02-22T03:26:42.194Z,21.17
2019-02-22T03:29:10.544Z,21.50
2019-02-22T03:31:38.922Z,20.67
2019-02-22T03:34:07.281Z,21.10
2019-02-22T03:36:35.667Z,21.35
2019-02-22T03:39:03.955Z,20.67
2019-02-22T03:41:33.540Z,20.13
2019-02-22T03:44:00.575Z,19.80
2019-02-22T03:46:28.931Z,20.40
2019-02-22T03:48:57.332Z,20.90
2019-02-22T03:51:25.716Z,19.65
2019-02-22T03:53:54.026Z,20.05
2019-02-22T03:56:23.099Z,20.45
2019-02-22T03:58:51.375Z,20.75
2019-02-22T04:01:19.667Z,20.00
2019-02-22T04:03:48.719Z,21.12
2019-02-22T04:06:17.100Z,20.40
2019-02-22T04:08:45.485Z,21.10
2019-02-22T04:11:13.772Z,21.30
2019-02-22T04:13:42.057Z,20.65
2019-02-22T04:16:10.358Z,20.67
2019-02-22T04:18:39.419Z,20.70
2019-02-22T04:21:07.727Z,20.73
2019-02-22T04:23:36.800Z,20.58
2019-02-22T04:26:05.156Z,20.83
2019-02-22T04:28:33.484Z,21.00
2019-02-22T04:31:01.759Z,21.23
2019-02-22T04:33:30.054Z,20.67
2019-02-22T04:35:58.348Z,20.73
2019-02-22T04:38:26.747Z,21.67
2019-02-22T04:40:55.114Z,21.08
2019-02-22T04:43:23.449Z,21.35
2019-02-22T04:45:51.741Z,21.85
2019-02-22T04:48:20.792Z,22.87
2019-02-22T04:50:49.843Z,22.85
2019-02-22T04:53:18.115Z,23.77
2019-02-22T04:55:46.395Z,25.27
2019-02-22T04:58:14.780Z,24.75
2019-02-22T05:00:43.060Z,25.17
2019-02-22T05:03:11.432Z,25.73
2019-02-22T05:05:39.800Z,26.33
2019-02-22T05:08:08.091Z,25.95
2019-02-22T05:10:36.378Z,26.60
2019-02-22T05:13:04.740Z,26.90
2019-02-22T05:15:33.114Z,27.62
2019-02-22T05:18:01.488Z,27.65
2019-02-22T05:20:29.803Z,27.95
2019-02-22T05:23:03.710Z,27.70
2019-02-22T05:25:27.449Z,28.80
2019-02-22T05:27:55.655Z,28.58
2019-02-22T05:30:24.812Z,28.55
2019-02-22T05:32:53.105Z,27.95
2019-02-22T05:35:21.462Z,28.83
2019-02-22T05:37:49.851Z,28.42
2019-02-22T05:40:18.219Z,28.67
2019-02-22T05:42:46.535Z,28.92
2019-02-22T05:45:15.587Z,29.12
2019-02-22T05:47:43.851Z,29.35
2019-02-22T05:50:12.247Z,28.67
2019-02-22T05:52:40.541Z,30.10
2019-02-22T05:55:08.897Z,30.10
2019-02-22T05:57:37.244Z,29.35
2019-02-22T06:00:05.528Z,30.70
2019-02-22T06:02:34.218Z,29.90
2019-02-22T06:05:02.208Z,30.83
2019-02-22T06:07:30.571Z,31.58
2019-02-22T06:09:58.927Z,31.00
2019-02-22T06:12:34.554Z,31.55
2019-02-22T06:14:55.615Z,31.52
2019-02-22T06:17:23.994Z,32.10
2019-02-22T06:19:52.371Z,32.10
2019-02-22T06:22:29.045Z,32.22
2019-02-22T06:24:49.019Z,32.03
2019-02-22T06:27:17.305Z,32.80
2019-02-22T06:29:45.591Z,33.50
2019-02-22T06:32:13.951Z,33.47
2019-02-22T06:34:42.324Z,33.88
2019-02-22T06:37:10.618Z,33.38
2019-02-22T06:39:38.921Z,32.78
2019-02-22T06:42:08.071Z,32.00
2019-02-22T06:44:36.359Z,31.27
2019-02-22T06:47:04.617Z,29.83
2019-02-22T06:49:32.999Z,31.70
2019-02-22T06:52:01.376Z,29.65
2019-02-22T06:54:29.652Z,30.80
2019-02-22T06:56:57.945Z,29.98
2019-02-22T06:59:27.795Z,30.05
2019-02-22T07:01:56.715Z,30.58
2019-02-22T07:04:25.108Z,29.67
2019-02-22T07:06:54.404Z,29.30
2019-02-22T07:09:22.705Z,29.30
2019-02-22T07:11:52.783Z,29.67
2019-02-22T07:14:21.175Z,29.52
2019-02-22T07:16:49.467Z,29.37
2019-02-22T07:19:17.755Z,29.02
2019-02-22T07:21:52.434Z,29.20
2019-02-22T07:24:15.212Z,29.52
2019-02-22T07:26:43.522Z,28.60
2019-02-22T07:29:12.575Z,28.02
2019-02-22T07:31:40.979Z,28.02
2019-02-22T07:34:09.247Z,27.83
2019-02-22T07:36:37.528Z,29.30
2019-02-22T07:39:05.820Z,29.20
2019-02-22T07:41:34.863Z,29.10
2019-02-22T07:44:03.319Z,29.55
2019-02-22T07:46:31.623Z,31.50
2019-02-22T07:48:59.911Z,31.02
2019-02-22T07:51:28.203Z,30.75
2019-02-22T07:53:56.498Z,32.15
2019-02-22T07:56:25.669Z,32.22
2019-02-22T07:58:54.021Z,31.95
2019-02-22T08:01:22.411Z,31.37
2019-02-22T08:03:50.719Z,29.85
2019-02-22T08:06:19.872Z,30.00
2019-02-22T08:08:48.581Z,29.97
2019-02-22T08:11:16.523Z,30.35
2019-02-22T08:13:44.794Z,29.02
2019-02-22T08:16:13.186Z,30.33
2019-02-22T08:18:41.473Z,31.67
2019-02-22T08:21:09.895Z,30.58
2019-02-22T08:23:38.212Z,31.83
2019-02-22T08:26:06.591Z,31.45
2019-02-22T08:28:34.974Z,31.62
2019-02-22T08:31:03.180Z,31.27
2019-02-22T08:33:31.519Z,30.52
2019-02-22T08:35:59.803Z,32.00
2019-02-22T08:38:28.150Z,30.50
2019-02-22T08:40:56.510Z,31.95
2019-02-22T08:43:31.594Z,30.75
2019-02-22T08:45:53.195Z,32.28
2019-02-22T08:48:21.579Z,31.67
2019-02-22T08:50:49.950Z,31.40
2019-02-22T08:53:18.252Z,30.52
2019-02-22T08:55:46.572Z,28.65
2019-02-22T08:58:16.814Z,28.98
2019-02-22T09:00:45.102Z,29.00
2019-02-22T09:03:13.384Z,28.90
2019-02-22T09:05:41.683Z,29.00
2019-02-22T09:08:09.981Z,27.58
2019-02-22T09:10:38.328Z,27.52
2019-02-22T09:13:07.379Z,26.65
2019-02-22T09:15:35.678Z,28.77
2019-02-22T09:18:03.980Z,26.10
2019-02-22T09:20:32.308Z,25.58
2019-02-22T09:23:00.631Z,25.42
2019-02-22T09:25:28.884Z,26.33
2019-02-22T09:27:57.175Z,24.70
2019-02-22T09:30:25.539Z,24.73
2019-02-22T09:32:53.819Z,26.85
2019-02-22T09:35:22.191Z,24.83
2019-02-22T09:37:50.480Z,25.25
2019-02-22T09:40:18.790Z,25.02
2019-02-22T09:42:47.948Z,26.33
2019-02-22T09:45:16.322Z,23.80
2019-02-22T09:47:44.705Z,23.43
2019-02-22T09:50:13.906Z,24.47
2019-02-22T09:52:42.268Z,23.87
2019-02-22T09:55:10.555Z,24.08
2019-02-22T09:57:38.948Z,24.70
2019-02-22T10:00:08.183Z,22.98
2019-02-22T10:02:36.499Z,23.12
2019-02-22T10:05:04.795Z,22.85
2019-02-22T10:07:33.155Z,22.17
2019-02-22T10:10:01.410Z,23.33
2019-02-22T10:12:29.800Z,22.80
2019-02-22T10:14:58.830Z,22.13
2019-02-22T10:17:27.107Z,22.77
2019-02-22T10:19:56.159Z,21.85
2019-02-22T10:22:24.639Z,22.33
2019-02-22T10:24:52.923Z,23.17
2019-02-22T10:27:21.219Z,22.15
2019-02-22T10:29:50.287Z,22.77
2019-02-22T10:32:18.614Z,22.17
2019-02-22T10:34:47.089Z,22.17
2019-02-22T10:37:15.311Z,20.63
2019-02-22T10:39:43.567Z,21.60
2019-02-22T10:42:11.972Z,21.15
2019-02-22T10:44:40.256Z,21.62
2019-02-22T10:47:08.575Z,21.00
2019-02-22T10:49:37.619Z,20.27
2019-02-22T10:52:05.915Z,19.83
2019-02-22T10:54:34.176Z,19.63
2019-02-22T10:57:02.543Z,19.92
2019-02-22T10:59:30.923Z,18.92
2019-02-22T11:01:59.295Z,19.12
2019-02-22T11:04:27.675Z,18.05
2019-02-22T11:06:55.976Z,19.27
2019-02-22T11:09:24.271Z,18.65
2019-02-22T11:11:53.432Z,19.58
2019-02-22T11:14:28.873Z,19.03
2019-02-22T11:16:50.076Z,18.15
2019-02-22T11:19:18.375Z,18.02
2019-02-22T11:21:46.671Z,18.73
2019-02-22T11:24:15.831Z,18.70
2019-02-22T11:26:45.334Z,18.37
2019-02-22T11:29:13.631Z,16.95
2019-02-22T11:31:42.091Z,17.57
2019-02-22T11:34:10.309Z,16.53
2019-02-22T11:36:38.643Z,17.23
2019-02-22T11:39:06.947Z,17.23
2019-02-22T11:41:36.012Z,17.15
2019-02-22T11:44:04.311Z,18.20
2019-02-22T11:46:32.656Z,17.50
2019-02-22T11:49:00.911Z,17.30
2019-02-22T11:51:29.823Z,17.50
2019-02-22T11:53:58.207Z,16.50
2019-02-22T11:56:26.587Z,18.27
2019-02-22T11:58:54.900Z,17.45
2019-02-22T12:01:23.340Z,17.90
2019-02-22T12:03:51.758Z,18.20
2019-02-22T12:06:20.012Z,17.40
2019-02-22T12:08:48.315Z,18.73
2019-02-22T12:11:17.203Z,17.98
2019-02-22T12:13:46.072Z,17.83
2019-02-22T12:16:14.494Z,17.45
2019-02-22T12:18:42.790Z,16.70
2019-02-22T12:21:11.088Z,16.30
2019-02-22T12:23:39.436Z,14.40
2019-02-22T12:26:08.423Z,16.27
2019-02-22T12:28:36.719Z,16.73
2019-02-22T12:31:05.003Z,16.08
2019-02-22T12:33:33.368Z,15.15
2019-02-22T12:36:01.658Z,15.45
2019-02-22T12:38:30.046Z,16.30
2019-02-22T12:40:59.126Z,15.88
2019-02-22T12:43:27.507Z,15.52
2019-02-22T12:45:55.921Z,15.52
2019-02-22T12:48:24.168Z,14.67
2019-02-22T12:50:53.103Z,15.95
2019-02-22T12:53:21.688Z,15.68
2019-02-22T12:55:50.014Z,15.82
2019-02-22T12:58:18.311Z,16.30
2019-02-22T13:00:47.382Z,17.17
2019-02-22T13:03:15.687Z,16.27
2019-02-22T13:05:44.739Z,14.18
2019-02-22T13:08:13.053Z,13.02
2019-02-22T13:10:42.114Z,13.50
2019-02-22T13:13:10.454Z,13.68
2019-02-22T13:15:38.825Z,13.98
2019-02-22T13:18:07.107Z,13.20
2019-02-22T13:20:35.540Z,13.00
2019-02-22T13:23:03.931Z,13.27
2019-02-22T13:25:32.627Z,13.45
2019-02-22T13:28:01.708Z,14.02
2019-02-22T13:30:30.065Z,12.47
2019-02-22T13:32:59.244Z,12.00
2019-02-22T13:35:27.556Z,11.85
2019-02-22T13:37:56.650Z,11.50
2019-02-22T13:40:25.003Z,10.95
2019-02-22T13:42:53.279Z,12.30
2019-02-22T13:45:26.626Z,12.63
2019-02-22T13:47:50.723Z,12.80
2019-02-22T13:50:19.009Z,12.63
2019-02-22T13:52:47.392Z,12.43
2019-02-22T13:55:15.789Z,12.30
2019-02-22T13:57:44.159Z,12.20
2019-02-22T14:00:13.391Z,12.10
2019-02-22T14:02:42.447Z,13.13
2019-02-22T14:05:10.819Z,12.63
2019-02-22T14:07:39.200Z,12.68
2019-02-22T14:10:07.572Z,11.50
2019-02-22T14:12:35.871Z,11.60
2019-02-22T14:15:05.039Z,11.82
2019-02-22T14:17:33.315Z,11.33
2019-02-22T14:20:01.695Z,10.75
2019-02-22T14:22:29.996Z,11.60
2019-02-22T14:24:58.347Z,11.63
2019-02-22T14:27:26.642Z,11.77
2019-02-22T14:29:54.941Z,11.85
2019-02-22T14:32:23.995Z,12.13
2019-02-22T14:34:52.414Z,11.98
2019-02-22T14:37:20.758Z,11.68
2019-02-22T14:39:57.689Z,11.70
2019-02-22T14:42:17.423Z,11.23
2019-02-22T14:44:45.779Z,10.52
2019-02-22T14:47:14.067Z,10.10
2019-02-22T14:49:42.448Z,9.55
2019-02-22T14:52:12.781Z,9.25
2019-02-22T14:54:39.903Z,9.63
2019-02-22T14:57:08.282Z,9.45
2019-02-22T14:59:36.616Z,10.32
2019-02-22T15:02:04.918Z,10.30
2019-02-22T15:04:33.314Z,10.63
2019-02-22T15:07:01.698Z,10.10
2019-02-22T15:09:30.004Z,10.40
2019-02-22T15:11:59.105Z,11.15
2019-02-22T15:14:28.236Z,11.15
2019-02-22T15:17:03.339Z,10.90
2019-02-22T15:19:32.401Z,10.23
2019-02-22T15:22:01.258Z,10.15
2019-02-22T15:24:29.035Z,9.75
2019-02-22T15:26:57.419Z,10.52
2019-02-22T15:29:25.799Z,11.12
2019-02-22T15:31:54.076Z,10.18
2019-02-22T15:34:22.358Z,10.77
2019-02-22T15:36:52.240Z,10.13
2019-02-22T15:39:20.577Z,10.65
2019-02-22T15:41:49.739Z,10.40
2019-02-22T15:44:18.122Z,10.75
2019-02-22T15:46:46.502Z,10.60
2019-02-22T15:49:14.907Z,10.63
2019-02-22T15:51:43.192Z,10.52
2019-02-22T15:54:11.456Z,10.43
2019-02-22T15:56:40.835Z,10.20
2019-02-22T15:59:09.094Z,10.18
2019-02-22T16:01:37.407Z,10.10
2019-02-22T16:04:06.463Z,9.63
2019-02-22T16:06:34.843Z,9.25
2019-02-22T16:09:03.092Z,9.20
2019-02-22T16:11:31.376Z,7.20
2019-02-22T16:13:59.664Z,6.40
2019-02-22T16:16:27.953Z,5.60
2019-02-22T16:18:56.223Z,5.90
2019-02-22T16:21:24.605Z,5.25
2019-02-22T16:23:52.880Z,5.15
2019-02-22T16:26:21.983Z,5.07
2019-02-22T16:28:50.443Z,5.53
2019-02-22T16:31:18.718Z,5.07
2019-02-22T16:33:46.987Z,5.20
2019-02-22T16:36:15.374Z,4.97
2019-02-22T16:38:43.739Z,5.53
2019-02-22T16:41:12.076Z,5.32
2019-02-22T16:43:41.125Z,5.12
2019-02-22T16:46:09.379Z,5.57
2019-02-22T16:48:37.666Z,5.45
2019-02-22T16:51:06.135Z,5.65
2019-02-22T16:53:34.635Z,6.00
2019-02-22T16:56:02.911Z,6.57
2019-02-22T16:58:31.188Z,5.85
2019-02-22T17:00:59.463Z,5.62
2019-02-22T17:03:27.862Z,6.20
2019-02-22T17:05:56.308Z,5.70
2019-02-22T17:08:24.580Z,6.37
2019-02-22T17:10:52.968Z,5.90
2019-02-22T17:13:21.363Z,6.40
2019-02-22T17:15:49.734Z,6.00
2019-02-22T17:18:18.026Z,6.57
2019-02-22T17:20:46.293Z,5.93
2019-02-22T17:23:14.743Z,5.90
2019-02-22T17:25:42.995Z,6.20
2019-02-22T17:28:11.291Z,6.30
2019-02-22T17:30:39.607Z,6.50
2019-02-22T17:33:07.898Z,6.75
2019-02-22T17:35:36.943Z,6.80
2019-02-22T17:38:05.326Z,6.60
2019-02-22T17:40:33.607Z,6.62
2019-02-22T17:43:01.951Z,6.77
2019-02-22T17:45:30.246Z,6.70
2019-02-22T17:47:58.530Z,6.90
2019-02-22T17:50:26.899Z,6.82
2019-02-22T17:52:55.288Z,9.30
2019-02-22T17:55:23.579Z,10.93
2019-02-22T17:57:51.932Z,10.70
2019-02-22T18:00:20.225Z,10.20
2019-02-22T18:02:48.595Z,9.82
2019-02-22T18:05:16.892Z,9.00
2019-02-22T18:07:45.252Z,8.32
2019-02-22T18:10:13.554Z,8.60
2019-02-22T18:12:41.899Z,8.23
2019-02-22T18:15:13.627Z,9.30
2019-02-22T18:17:41.984Z,10.90
2019-02-22T18:20:11.040Z,10.45
2019-02-22T18:22:39.347Z,10.45
2019-02-22T18:25:08.374Z,10.68
2019-02-22T18:27:36.678Z,9.88
2019-02-22T18:30:04.959Z,10.25
2019-02-22T18:32:33.251Z,9.73
2019-02-22T18:35:02.303Z,9.10
2019-02-22T18:37:30.684Z,8.68
2019-02-22T18:39:58.974Z,8.75
2019-02-22T18:42:27.339Z,8.18
2019-02-22T18:44:55.627Z,8.20
2019-02-22T18:47:23.903Z,8.30
2019-02-22T18:49:52.186Z,7.60
2019-02-22T18:52:20.547Z,8.35
2019-02-22T18:54:48.894Z,8.18
2019-02-22T18:57:17.203Z,8.10
2019-02-22T18:59:45.571Z,8.50
2019-02-22T19:02:13.948Z,7.90
2019-02-22T19:04:42.338Z,7.62
2019-02-22T19:07:10.635Z,8.10
2019-02-22T19:09:39.295Z,7.93
2019-02-22T19:12:07.572Z,7.37
2019-02-22T19:14:35.940Z,7.20
2019-02-22T19:17:04.230Z,7.62
2019-02-22T19:19:32.515Z,7.53
2019-02-22T19:22:00.787Z,7.78
2019-02-22T19:24:29.110Z,7.70
2019-02-22T19:26:57.398Z,7.12
2019-02-22T19:29:25.676Z,6.85
2019-02-22T19:31:53.969Z,6.43
2019-02-22T19:34:22.259Z,5.97
2019-02-22T19:36:50.541Z,5.93
2019-02-22T19:39:18.794Z,5.32
2019-02-22T19:41:47.172Z,5.32
2019-02-22T19:44:15.466Z,5.57
2019-02-22T19:46:43.827Z,5.60
2019-02-22T19:49:12.099Z,5.40
2019-02-22T19:51:40.547Z,15.18
2019-02-22T19:54:08.859Z,11.40
2019-02-22T19:56:37.399Z,11.20
2019-02-22T19:59:06.532Z,7.62
2019-02-22T20:01:34.932Z,6.05
2019-02-22T20:04:03.288Z,6.00
2019-02-22T20:06:31.575Z,5.82
2019-02-22T20:08:59.843Z,5.80
2019-02-22T20:11:28.130Z,6.00
2019-02-22T20:13:56.411Z,5.78
2019-02-22T20:16:24.812Z,5.55
2019-02-22T20:18:53.083Z,5.70
2019-02-22T20:21:21.336Z,5.93
2019-02-22T20:23:49.695Z,5.50
2019-02-22T20:26:18.136Z,5.40
2019-02-22T20:28:46.462Z,6.80
2019-02-22T20:31:20.387Z,6.50
2019-02-22T20:33:43.821Z,7.03
2019-02-22T20:36:12.153Z,4.62
2019-02-22T20:38:41.295Z,6.45
2019-02-22T20:41:09.594Z,6.32
2019-02-22T20:43:37.946Z,7.65
2019-02-22T20:46:08.071Z,11.02
2019-02-22T20:48:36.336Z,8.87
2019-02-22T20:51:04.604Z,3.85
2019-02-22T20:53:32.892Z,4.12
2019-02-22T20:56:01.154Z,4.43
2019-02-22T20:58:30.013Z,4.75
2019-02-22T21:00:59.048Z,4.18
2019-02-22T21:03:27.371Z,4.60
2019-02-22T21:05:55.702Z,4.70
2019-02-22T21:08:24.791Z,4.30
2019-02-22T21:10:52.471Z,4.30
2019-02-22T21:13:20.803Z,4.30
2019-02-22T21:15:49.090Z,4.50
2019-02-22T21:18:17.392Z,4.20
2019-02-22T21:20:45.668Z,4.60
2019-02-22T21:23:13.951Z,4.40
2019-02-22T21:25:42.252Z,3.97
2019-02-22T21:28:10.595Z,3.83
2019-02-22T21:30:38.858Z,4.05
2019-02-22T21:33:07.248Z,4.12
2019-02-22T21:35:35.726Z,3.78
2019-02-22T21:38:04.811Z,3.90
2019-02-22T21:40:33.092Z,3.80
2019-02-22T21:43:01.465Z,4.00
2019-02-22T21:45:29.728Z,3.67
2019-02-22T21:47:58.006Z,4.30
2019-02-22T21:50:26.844Z,4.20
2019-02-22T21:52:55.184Z,4.00
2019-02-22T21:55:23.471Z,5.00
2019-02-22T21:57:51.750Z,4.50
2019-02-22T22:00:20.115Z,4.25
2019-02-22T22:02:48.393Z,4.28
2019-02-22T22:05:16.660Z,4.43
2019-02-22T22:07:44.934Z,4.70
2019-02-22T22:10:13.214Z,5.00
2019-02-22T22:12:41.481Z,4.78
2019-02-22T22:15:10.721Z,5.25
2019-02-22T22:17:38.067Z,5.60
2019-02-22T22:20:06.335Z,5.57
2019-02-22T22:22:34.622Z,5.85
2019-02-22T22:25:02.902Z,6.90
2019-02-22T22:27:31.254Z,8.40
2019-02-22T22:29:59.635Z,8.57
2019-02-22T22:32:27.956Z,9.32
2019-02-22T22:34:56.282Z,9.30
2019-02-22T22:37:24.610Z,9.10
2019-02-22T22:39:52.907Z,9.57
2019-02-22T22:42:21.196Z,9.50
2019-02-22T22:44:49.491Z,9.55
2019-02-22T22:47:17.779Z,9.15
2019-02-22T22:49:46.067Z,9.07
2019-02-22T22:52:14.416Z,8.80
2019-02-22T22:54:42.707Z,8.77
2019-02-22T22:57:10.975Z,8.80
2019-02-22T22:59:39.323Z,8.02
2019-02-22T23:02:07.611Z,8.40
2019-02-22T23:04:35.886Z,7.90
2019-02-22T23:07:04.140Z,7.80
2019-02-22T23:09:33.159Z,7.82
2019-02-22T23:12:01.472Z,7.35
2019-02-22T23:14:30.511Z,7.82
2019-02-22T23:16:58.896Z,7.25
2019-02-22T23:19:27.172Z,7.53
2019-02-22T23:21:55.570Z,7.47
2019-02-22T23:24:23.919Z,7.70
2019-02-22T23:26:52.207Z,7.60
2019-02-22T23:29:20.487Z,7.43
2019-02-22T23:31:48.851Z,7.25
2019-02-22T23:34:17.230Z,7.43
2019-02-22T23:36:45.519Z,7.28
2019-02-22T23:39:13.823Z,7.12
2019-02-22T23:41:42.170Z,7.00
2019-02-22T23:44:10.539Z,6.78
2019-02-22T23:46:38.821Z,6.70
2019-02-22T23:49:13.221Z,7.03
2019-02-22T23:51:35.372Z,6.68
2019-02-22T23:54:03.642Z,7.00
2019-02-22T23:56:32.023Z,7.05
2019-02-22T23:59:00.289Z,7.28
